createdAt,value
2019-03-31T00:00:07.988Z,9.60
2019-03-31T00:00:34.333Z,8.00
2019-03-31T00:01:08.092Z,7.00
2019-03-31T00:01:29.009Z,7.00
2019-03-31T00:01:55.011Z,10.00
2019-03-31T00:02:21.272Z,5.60
2019-03-31T00:02:45.926Z,5.80
2019-03-31T00:03:10.580Z,7.00
2019-03-31T00:03:35.202Z,7.00
2019-03-31T00:03:59.846Z,7.60
2019-03-31T00:04:24.466Z,8.40
2019-03-31T00:04:49.146Z,7.00
2019-03-31T00:05:13.769Z,7.20
2019-03-31T00:05:38.533Z,7.00
2019-03-31T00:06:03.264Z,7.80
2019-03-31T00:06:28.017Z,8.00
2019-03-31T00:06:52.649Z,7.00
2019-03-31T00:07:18.916Z,7.00
2019-03-31T00:07:43.593Z,7.00
2019-03-31T00:08:08.293Z,14.00
2019-03-31T00:08:32.977Z,6.20
2019-03-31T00:08:57.617Z,7.00
2019-03-31T00:09:22.256Z,10.00
2019-03-31T00:09:46.927Z,9.00
2019-03-31T00:10:11.579Z,7.00
2019-03-31T00:10:36.215Z,7.00
2019-03-31T00:11:00.935Z,7.00
2019-03-31T00:11:25.642Z,7.60
2019-03-31T00:11:50.353Z,7.00
2019-03-31T00:12:14.981Z,7.00
2019-03-31T00:12:39.603Z,8.00
2019-03-31T00:13:04.269Z,7.00
2019-03-31T00:13:28.905Z,7.00
2019-03-31T00:13:53.603Z,7.00
2019-03-31T00:14:18.242Z,7.00
2019-03-31T00:14:42.890Z,9.80
2019-03-31T00:15:07.952Z,7.00
2019-03-31T00:15:32.584Z,7.20
2019-03-31T00:15:57.215Z,7.00
2019-03-31T00:16:21.926Z,6.25
2019-03-31T00:16:46.564Z,7.40
2019-03-31T00:17:11.382Z,8.00
2019-03-31T00:17:36.096Z,6.60
2019-03-31T00:18:00.746Z,7.60
2019-03-31T00:18:25.364Z,7.00
2019-03-31T00:18:49.983Z,6.60
2019-03-31T00:19:14.665Z,9.00
2019-03-31T00:19:39.281Z,6.00
2019-03-31T00:20:04.427Z,7.80
2019-03-31T00:20:29.089Z,7.00
2019-03-31T00:20:53.751Z,7.00
2019-03-31T00:21:18.376Z,6.00
2019-03-31T00:21:43.072Z,7.00
2019-03-31T00:22:07.645Z,7.00
2019-03-31T00:22:32.319Z,9.00
2019-03-31T00:22:56.957Z,8.60
2019-03-31T00:23:21.594Z,8.60
2019-03-31T00:23:46.268Z,7.60
2019-03-31T00:24:11.189Z,9.00
2019-03-31T00:24:35.823Z,7.20
2019-03-31T00:25:00.448Z,7.00
2019-03-31T00:25:25.070Z,7.00
2019-03-31T00:25:51.371Z,7.00
2019-03-31T00:26:15.998Z,7.00
2019-03-31T00:26:40.634Z,7.00
2019-03-31T00:27:05.274Z,9.00
2019-03-31T00:27:29.914Z,8.75
2019-03-31T00:27:54.550Z,7.00
2019-03-31T00:28:19.182Z,8.25
2019-03-31T00:28:43.873Z,10.00
2019-03-31T00:29:08.526Z,12.80
2019-03-31T00:29:33.149Z,8.00
2019-03-31T00:29:57.807Z,8.00
2019-03-31T00:30:22.519Z,10.00
2019-03-31T00:30:47.427Z,8.80
2019-03-31T00:31:21.981Z,6.40
2019-03-31T00:31:39.210Z,9.20
2019-03-31T00:32:03.878Z,10.60
2019-03-31T00:32:28.530Z,10.50
2019-03-31T00:32:53.184Z,7.40
2019-03-31T00:33:17.824Z,7.00
2019-03-31T00:33:42.527Z,7.00
2019-03-31T00:34:07.194Z,7.60
2019-03-31T00:34:31.827Z,8.00
2019-03-31T00:34:56.485Z,11.00
2019-03-31T00:35:21.139Z,9.00
2019-03-31T00:35:45.755Z,8.40
2019-03-31T00:36:10.408Z,8.20
2019-03-31T00:36:35.033Z,6.00
2019-03-31T00:36:59.671Z,8.00
2019-03-31T00:37:24.321Z,10.50
2019-03-31T00:37:48.956Z,11.25
2019-03-31T00:38:13.594Z,8.00
2019-03-31T00:38:38.483Z,8.60
2019-03-31T00:39:03.391Z,9.00
2019-03-31T00:39:28.023Z,10.25
2019-03-31T00:39:52.723Z,11.00
2019-03-31T00:40:17.374Z,9.00
2019-03-31T00:40:42.105Z,9.00
2019-03-31T00:41:06.737Z,10.00
2019-03-31T00:41:31.380Z,10.25
2019-03-31T00:41:55.993Z,8.40
2019-03-31T00:42:20.662Z,11.25
2019-03-31T00:42:45.286Z,9.40
2019-03-31T00:43:09.950Z,11.00
2019-03-31T00:43:34.548Z,10.00
2019-03-31T00:43:59.180Z,9.80
2019-03-31T00:44:23.830Z,14.00
2019-03-31T00:44:48.450Z,9.00
2019-03-31T00:45:13.117Z,9.00
2019-03-31T00:45:37.824Z,9.00
2019-03-31T00:46:02.486Z,12.00
2019-03-31T00:46:27.146Z,8.00
2019-03-31T00:46:51.853Z,7.00
2019-03-31T00:47:16.478Z,8.20
2019-03-31T00:47:41.127Z,7.00
2019-03-31T00:48:05.742Z,6.60
2019-03-31T00:48:30.422Z,12.00
2019-03-31T00:48:55.056Z,10.80
2019-03-31T00:49:19.732Z,11.00
2019-03-31T00:49:44.384Z,7.75
2019-03-31T00:50:09.084Z,9.60
2019-03-31T00:50:33.724Z,8.60
2019-03-31T00:50:58.366Z,9.00
2019-03-31T00:51:23.048Z,8.00
2019-03-31T00:51:47.722Z,10.40
2019-03-31T00:52:12.984Z,7.50
2019-03-31T00:52:37.630Z,8.20
2019-03-31T00:53:02.232Z,8.40
2019-03-31T00:53:27.254Z,7.00
2019-03-31T00:53:51.904Z,9.00
2019-03-31T00:54:16.532Z,8.40
2019-03-31T00:54:41.232Z,10.00
2019-03-31T00:55:05.876Z,7.60
2019-03-31T00:55:30.519Z,10.20
2019-03-31T00:55:55.172Z,10.00
2019-03-31T00:56:19.890Z,10.00
2019-03-31T00:56:44.570Z,12.00
2019-03-31T00:57:09.226Z,12.00
2019-03-31T00:57:33.866Z,9.00
2019-03-31T00:57:58.488Z,9.40
2019-03-31T00:58:23.114Z,8.25
2019-03-31T00:58:47.788Z,9.00
2019-03-31T00:59:13.106Z,10.83
2019-03-31T00:59:37.775Z,10.00
2019-03-31T01:00:02.817Z,10.20
2019-03-31T01:00:47.314Z,10.00
2019-03-31T01:01:13.680Z,9.40
2019-03-31T01:01:39.936Z,9.00
2019-03-31T01:02:06.307Z,7.60
2019-03-31T01:02:32.544Z,7.50
2019-03-31T01:02:57.198Z,8.00
2019-03-31T01:03:21.822Z,7.00
2019-03-31T01:03:46.460Z,10.00
2019-03-31T01:04:11.252Z,9.00
2019-03-31T01:04:36.638Z,8.60
2019-03-31T01:05:01.262Z,9.00
2019-03-31T01:05:25.892Z,9.25
2019-03-31T01:05:50.534Z,9.00
2019-03-31T01:06:15.794Z,10.40
2019-03-31T01:06:40.602Z,7.20
2019-03-31T01:07:05.939Z,10.80
2019-03-31T01:07:30.566Z,8.00
2019-03-31T01:07:55.237Z,7.20
2019-03-31T01:08:20.133Z,9.40
2019-03-31T01:08:44.870Z,7.60
2019-03-31T01:09:24.354Z,7.40
2019-03-31T01:09:49.008Z,10.00
2019-03-31T01:10:13.708Z,9.00
2019-03-31T01:10:38.341Z,10.00
2019-03-31T01:11:03.916Z,10.00
2019-03-31T01:11:28.702Z,7.50
2019-03-31T01:11:53.358Z,9.80
2019-03-31T01:12:18.918Z,7.40
2019-03-31T01:12:43.580Z,10.00
2019-03-31T01:13:08.209Z,7.00
2019-03-31T01:13:32.889Z,9.00
2019-03-31T01:13:57.608Z,8.00
2019-03-31T01:14:23.087Z,7.00
2019-03-31T01:14:47.764Z,7.00
2019-03-31T01:15:14.830Z,7.00
2019-03-31T01:15:39.718Z,7.00
2019-03-31T01:16:04.371Z,7.00
2019-03-31T01:16:29.178Z,9.20
2019-03-31T01:16:54.588Z,10.25
2019-03-31T01:17:19.515Z,9.50
2019-03-31T01:17:44.626Z,9.40
2019-03-31T01:18:09.235Z,9.20
2019-03-31T01:18:34.538Z,12.00
2019-03-31T01:18:59.166Z,10.00
2019-03-31T01:19:24.321Z,8.00
2019-03-31T01:19:49.147Z,7.60
2019-03-31T01:20:13.824Z,7.20
2019-03-31T01:20:38.449Z,7.60
2019-03-31T01:21:03.113Z,8.00
2019-03-31T01:21:27.724Z,9.25
2019-03-31T01:21:52.364Z,8.40
2019-03-31T01:22:17.002Z,8.00
2019-03-31T01:22:43.157Z,8.00
2019-03-31T01:23:08.434Z,8.00
2019-03-31T01:23:33.056Z,9.40
2019-03-31T01:23:57.700Z,10.40
2019-03-31T01:24:22.485Z,9.00
2019-03-31T01:24:47.125Z,9.40
2019-03-31T01:25:13.423Z,7.00
2019-03-31T01:25:38.217Z,6.50
2019-03-31T01:26:03.163Z,9.20
2019-03-31T01:26:27.835Z,11.00
2019-03-31T01:26:52.563Z,10.00
2019-03-31T01:27:18.651Z,9.20
2019-03-31T01:27:43.409Z,9.40
2019-03-31T01:28:08.006Z,9.00
2019-03-31T01:28:32.790Z,9.00
2019-03-31T01:28:57.514Z,10.60
2019-03-31T01:29:22.135Z,10.00
2019-03-31T01:29:47.117Z,9.00
2019-03-31T01:30:12.931Z,11.00
2019-03-31T01:30:37.560Z,8.00
2019-03-31T01:31:02.271Z,8.00
2019-03-31T01:31:28.450Z,9.00
2019-03-31T01:31:54.036Z,8.00
2019-03-31T01:32:18.738Z,10.00
2019-03-31T01:32:43.584Z,9.20
2019-03-31T01:33:08.465Z,8.60
2019-03-31T01:33:33.171Z,7.40
2019-03-31T01:33:57.871Z,9.00
2019-03-31T01:34:22.497Z,9.00
2019-03-31T01:34:47.208Z,10.00
2019-03-31T01:35:12.627Z,8.40
2019-03-31T01:35:37.249Z,8.00
2019-03-31T01:36:01.912Z,8.00
2019-03-31T01:36:26.541Z,10.40
2019-03-31T01:36:51.171Z,9.00
2019-03-31T01:37:16.071Z,8.00
2019-03-31T01:37:40.739Z,8.00
2019-03-31T01:38:05.388Z,8.00
2019-03-31T01:38:30.043Z,8.20
2019-03-31T01:38:54.687Z,11.40
2019-03-31T01:39:19.607Z,8.00
2019-03-31T01:39:44.326Z,8.00
2019-03-31T01:40:08.954Z,8.25
2019-03-31T01:40:33.656Z,11.00
2019-03-31T01:40:58.311Z,10.00
2019-03-31T01:41:22.947Z,9.00
2019-03-31T01:41:47.571Z,8.60
2019-03-31T01:42:13.242Z,8.33
2019-03-31T01:42:37.889Z,10.40
2019-03-31T01:43:02.516Z,8.00
2019-03-31T01:43:27.183Z,8.00
2019-03-31T01:43:51.827Z,9.00
2019-03-31T01:44:16.446Z,13.00
2019-03-31T01:44:41.069Z,9.60
2019-03-31T01:45:06.899Z,10.20
2019-03-31T01:45:31.543Z,8.20
2019-03-31T01:45:56.256Z,8.00
2019-03-31T01:46:20.899Z,9.20
2019-03-31T01:46:45.521Z,8.00
2019-03-31T01:47:11.007Z,8.80
2019-03-31T01:47:35.623Z,9.75
2019-03-31T01:48:00.323Z,8.60
2019-03-31T01:48:25.017Z,9.20
2019-03-31T01:48:49.669Z,10.40
2019-03-31T01:49:14.291Z,9.60
2019-03-31T01:49:38.940Z,9.00
2019-03-31T01:50:03.831Z,7.20
2019-03-31T01:50:28.622Z,8.00
2019-03-31T01:50:53.265Z,6.60
2019-03-31T01:51:17.879Z,8.00
2019-03-31T01:51:42.495Z,8.60
2019-03-31T01:52:07.101Z,8.00
2019-03-31T01:52:31.741Z,7.00
2019-03-31T01:52:56.385Z,8.40
2019-03-31T01:53:21.020Z,7.50
2019-03-31T01:53:45.665Z,8.00
2019-03-31T01:54:10.335Z,8.00
2019-03-31T01:54:34.955Z,6.40
2019-03-31T01:54:59.586Z,8.00
2019-03-31T01:55:24.255Z,7.00
2019-03-31T01:55:48.906Z,9.40
2019-03-31T01:56:13.862Z,12.00
2019-03-31T01:56:38.480Z,10.00
2019-03-31T01:57:03.187Z,10.20
2019-03-31T01:57:27.847Z,11.60
2019-03-31T01:57:52.551Z,10.80
2019-03-31T01:58:18.803Z,8.00
2019-03-31T01:58:43.501Z,11.00
2019-03-31T01:59:08.151Z,8.00
2019-03-31T01:59:32.846Z,11.80
2019-03-31T01:59:57.469Z,9.60
2019-03-31T02:00:26.534Z,9.00
2019-03-31T02:00:55.516Z,8.00
2019-03-31T02:01:20.643Z,7.00
2019-03-31T02:01:45.281Z,8.00
2019-03-31T02:02:11.547Z,8.00
2019-03-31T02:02:36.187Z,8.00
2019-03-31T02:03:00.803Z,8.00
2019-03-31T02:03:25.519Z,9.00
2019-03-31T02:03:50.155Z,8.60
2019-03-31T02:04:14.781Z,9.25
2019-03-31T02:04:39.470Z,7.00
2019-03-31T02:05:05.514Z,8.40
2019-03-31T02:05:30.703Z,9.60
2019-03-31T02:05:55.362Z,9.00
2019-03-31T02:06:20.001Z,7.20
2019-03-31T02:06:44.729Z,6.60
2019-03-31T02:07:09.395Z,7.00
2019-03-31T02:07:34.107Z,8.00
2019-03-31T02:07:58.761Z,8.00
2019-03-31T02:08:23.409Z,8.00
2019-03-31T02:08:48.085Z,9.00
2019-03-31T02:09:13.314Z,11.40
2019-03-31T02:09:37.957Z,8.00
2019-03-31T02:10:02.913Z,10.80
2019-03-31T02:10:27.549Z,8.00
2019-03-31T02:10:52.253Z,11.00
2019-03-31T02:11:16.915Z,8.00
2019-03-31T02:11:41.573Z,7.60
2019-03-31T02:12:06.207Z,8.00
2019-03-31T02:12:30.919Z,6.50
2019-03-31T02:12:55.530Z,8.00
2019-03-31T02:13:20.166Z,8.00
2019-03-31T02:13:44.810Z,7.00
2019-03-31T02:14:09.441Z,8.00
2019-03-31T02:14:34.063Z,7.80
2019-03-31T02:14:58.797Z,4.00
2019-03-31T02:15:23.545Z,6.00
2019-03-31T02:15:48.151Z,8.00
2019-03-31T02:16:13.351Z,8.00
2019-03-31T02:16:37.983Z,10.00
2019-03-31T02:17:02.635Z,9.00
2019-03-31T02:17:27.255Z,6.80
2019-03-31T02:17:51.906Z,4.00
2019-03-31T02:18:16.543Z,5.00
2019-03-31T02:18:41.161Z,6.00
2019-03-31T02:19:05.801Z,4.20
2019-03-31T02:19:30.502Z,5.50
2019-03-31T02:19:55.170Z,6.00
2019-03-31T02:20:19.779Z,8.00
2019-03-31T02:20:44.492Z,6.40
2019-03-31T02:21:09.117Z,8.00
2019-03-31T02:21:33.735Z,6.00
2019-03-31T02:21:58.365Z,5.40
2019-03-31T02:22:22.985Z,7.40
2019-03-31T02:22:48.219Z,5.80
2019-03-31T02:23:13.404Z,6.60
2019-03-31T02:23:38.093Z,6.00
2019-03-31T02:24:02.727Z,5.20
2019-03-31T02:24:27.337Z,7.50
2019-03-31T02:24:52.106Z,5.00
2019-03-31T02:25:16.814Z,7.00
2019-03-31T02:25:41.443Z,5.20
2019-03-31T02:26:06.085Z,6.00
2019-03-31T02:26:30.703Z,8.00
2019-03-31T02:26:55.367Z,6.00
2019-03-31T02:27:19.949Z,6.00
2019-03-31T02:27:44.583Z,8.00
2019-03-31T02:28:09.244Z,5.00
2019-03-31T02:28:33.867Z,5.00
2019-03-31T02:28:58.489Z,4.40
2019-03-31T02:29:23.612Z,6.00
2019-03-31T02:29:48.209Z,5.00
2019-03-31T02:30:13.866Z,6.20
2019-03-31T02:30:38.577Z,5.80
2019-03-31T02:31:03.204Z,4.00
2019-03-31T02:31:27.853Z,3.00
2019-03-31T02:31:52.585Z,2.00
2019-03-31T02:32:24.291Z,4.20
2019-03-31T02:32:43.724Z,5.00
2019-03-31T02:33:08.344Z,5.00
2019-03-31T02:33:33.053Z,4.60
2019-03-31T02:33:57.674Z,4.00
2019-03-31T02:34:22.359Z,5.40
2019-03-31T02:34:46.997Z,4.80
2019-03-31T02:35:11.623Z,4.50
2019-03-31T02:35:36.258Z,5.00
2019-03-31T02:36:00.919Z,4.00
2019-03-31T02:36:25.537Z,4.00
2019-03-31T02:36:50.202Z,4.40
2019-03-31T02:37:14.813Z,4.00
2019-03-31T02:37:39.784Z,6.40
2019-03-31T02:38:04.430Z,6.00
2019-03-31T02:38:29.195Z,5.00
2019-03-31T02:38:53.817Z,4.60
2019-03-31T02:39:18.461Z,6.00
2019-03-31T02:39:43.093Z,3.60
2019-03-31T02:40:07.795Z,5.00
2019-03-31T02:40:32.439Z,5.00
2019-03-31T02:40:57.061Z,3.00
2019-03-31T02:41:21.697Z,3.40
2019-03-31T02:41:46.319Z,4.80
2019-03-31T02:42:10.996Z,3.00
2019-03-31T02:42:35.648Z,4.00
2019-03-31T02:43:00.253Z,4.60
2019-03-31T02:43:24.996Z,3.60
2019-03-31T02:43:50.067Z,4.60
2019-03-31T02:44:14.768Z,5.60
2019-03-31T02:44:39.380Z,4.60
2019-03-31T02:45:05.963Z,6.00
2019-03-31T02:45:30.577Z,3.75
2019-03-31T02:45:55.194Z,4.60
2019-03-31T02:46:19.817Z,4.00
2019-03-31T02:46:44.429Z,5.00
2019-03-31T02:47:09.083Z,4.80
2019-03-31T02:47:33.700Z,5.60
2019-03-31T02:47:58.323Z,4.00
2019-03-31T02:48:22.946Z,5.00
2019-03-31T02:48:47.592Z,5.00
2019-03-31T02:49:12.218Z,3.00
2019-03-31T02:49:36.905Z,4.80
2019-03-31T02:50:01.580Z,4.00
2019-03-31T02:50:44.949Z,2.50
2019-03-31T02:51:10.038Z,7.00
2019-03-31T02:51:34.751Z,4.00
2019-03-31T02:51:59.385Z,5.00
2019-03-31T02:52:24.066Z,5.60
2019-03-31T02:52:48.774Z,5.60
2019-03-31T02:53:13.702Z,3.00
2019-03-31T02:53:38.398Z,4.00
2019-03-31T02:54:03.035Z,3.20
2019-03-31T02:54:27.631Z,4.00
2019-03-31T02:54:52.300Z,5.20
2019-03-31T02:55:16.914Z,3.60
2019-03-31T02:55:41.533Z,4.80
2019-03-31T02:56:06.196Z,6.00
2019-03-31T02:56:31.040Z,4.00
2019-03-31T02:56:55.717Z,4.00
2019-03-31T02:57:21.312Z,5.00
2019-03-31T02:57:45.943Z,4.00
2019-03-31T02:58:10.676Z,4.00
2019-03-31T02:58:35.310Z,2.40
2019-03-31T02:58:59.924Z,4.00
2019-03-31T02:59:24.592Z,4.00
2019-03-31T02:59:50.410Z,4.40
2019-03-31T03:00:15.038Z,4.00
2019-03-31T03:00:39.689Z,5.00
2019-03-31T03:01:04.327Z,3.00
2019-03-31T03:01:29.003Z,4.00
2019-03-31T03:01:53.634Z,3.20
2019-03-31T03:02:18.267Z,5.40
2019-03-31T03:02:42.944Z,5.00
2019-03-31T03:03:07.706Z,3.00
2019-03-31T03:03:32.379Z,4.00
2019-03-31T03:03:57.035Z,4.00
2019-03-31T03:04:21.654Z,6.00
2019-03-31T03:04:46.296Z,6.00
2019-03-31T03:05:19.857Z,4.00
2019-03-31T03:05:37.263Z,3.60
2019-03-31T03:06:01.864Z,2.40
2019-03-31T03:06:26.495Z,2.60
2019-03-31T03:06:51.290Z,3.00
2019-03-31T03:07:16.289Z,3.00
2019-03-31T03:07:40.906Z,3.60
2019-03-31T03:08:05.547Z,4.00
2019-03-31T03:08:30.183Z,4.00
2019-03-31T03:08:55.225Z,3.00
2019-03-31T03:09:20.932Z,2.50
2019-03-31T03:09:45.730Z,3.00
2019-03-31T03:10:10.394Z,3.20
2019-03-31T03:10:34.999Z,3.00
2019-03-31T03:10:59.644Z,4.00
2019-03-31T03:11:24.278Z,3.00
2019-03-31T03:11:48.974Z,2.60
2019-03-31T03:12:13.746Z,3.00
2019-03-31T03:12:40.034Z,2.00
2019-03-31T03:13:04.657Z,2.00
2019-03-31T03:13:30.057Z,3.25
2019-03-31T03:13:54.723Z,4.00
2019-03-31T03:14:19.360Z,4.00
2019-03-31T03:14:44.032Z,4.00
2019-03-31T03:15:08.715Z,3.00
2019-03-31T03:15:36.594Z,2.00
2019-03-31T03:16:07.186Z,4.00
2019-03-31T03:16:31.819Z,2.00
2019-03-31T03:16:56.475Z,2.20
2019-03-31T03:17:21.093Z,2.00
2019-03-31T03:17:45.733Z,2.80
2019-03-31T03:18:10.366Z,3.60
2019-03-31T03:18:34.994Z,2.60
2019-03-31T03:18:59.620Z,3.00
2019-03-31T03:19:24.430Z,2.00
2019-03-31T03:19:49.052Z,4.00
2019-03-31T03:20:13.684Z,3.80
2019-03-31T03:20:38.303Z,2.00
2019-03-31T03:21:02.944Z,2.00
2019-03-31T03:21:27.575Z,1.60
2019-03-31T03:21:52.250Z,2.00
2019-03-31T03:22:16.878Z,2.00
2019-03-31T03:22:41.567Z,2.00
2019-03-31T03:23:06.231Z,2.00
2019-03-31T03:23:30.875Z,3.00
2019-03-31T03:23:55.569Z,3.00
2019-03-31T03:24:20.191Z,4.50
2019-03-31T03:24:44.880Z,3.00
2019-03-31T03:25:09.472Z,3.00
2019-03-31T03:25:34.106Z,3.00
2019-03-31T03:25:58.736Z,3.00
2019-03-31T03:26:23.525Z,2.00
2019-03-31T03:26:48.170Z,3.00
2019-03-31T03:27:13.807Z,3.00
2019-03-31T03:27:38.429Z,2.00
2019-03-31T03:28:03.059Z,3.00
2019-03-31T03:28:27.673Z,2.00
2019-03-31T03:28:52.324Z,4.00
2019-03-31T03:29:16.952Z,2.00
2019-03-31T03:29:41.573Z,3.00
2019-03-31T03:30:07.467Z,4.00
2019-03-31T03:30:32.221Z,3.00
2019-03-31T03:30:57.247Z,2.00
2019-03-31T03:31:22.325Z,3.00
2019-03-31T03:31:47.169Z,3.00
2019-03-31T03:32:11.782Z,3.00
2019-03-31T03:32:36.438Z,3.00
2019-03-31T03:33:14.955Z,2.00
2019-03-31T03:33:27.414Z,2.80
2019-03-31T03:33:52.144Z,3.40
2019-03-31T03:34:16.878Z,3.00
2019-03-31T03:34:41.530Z,3.00
2019-03-31T03:35:06.168Z,2.00
2019-03-31T03:35:30.784Z,3.00
2019-03-31T03:35:55.440Z,2.40
2019-03-31T03:36:20.074Z,4.00
2019-03-31T03:36:44.703Z,2.00
2019-03-31T03:37:09.332Z,3.00
2019-03-31T03:37:33.942Z,5.00
2019-03-31T03:37:58.558Z,3.00
2019-03-31T03:38:23.206Z,3.00
2019-03-31T03:38:47.822Z,3.00
2019-03-31T03:39:12.461Z,3.00
2019-03-31T03:39:37.081Z,4.00
2019-03-31T03:40:01.735Z,3.00
2019-03-31T03:40:26.457Z,2.80
2019-03-31T03:40:51.072Z,4.00
2019-03-31T03:41:15.694Z,3.20
2019-03-31T03:41:40.332Z,3.00
2019-03-31T03:42:04.947Z,2.00
2019-03-31T03:42:29.599Z,4.00
2019-03-31T03:42:54.298Z,2.00
2019-03-31T03:43:18.943Z,1.00
2019-03-31T03:43:55.084Z,2.25
2019-03-31T03:44:09.895Z,3.60
2019-03-31T03:44:34.539Z,2.00
2019-03-31T03:44:59.165Z,2.00
2019-03-31T03:45:23.804Z,2.00
2019-03-31T03:45:48.518Z,3.00
2019-03-31T03:46:13.806Z,3.33
2019-03-31T03:46:38.524Z,3.00
2019-03-31T03:47:03.129Z,3.00
2019-03-31T03:47:27.750Z,3.00
2019-03-31T03:47:52.442Z,3.00
2019-03-31T03:48:17.106Z,3.00
2019-03-31T03:48:41.798Z,1.40
2019-03-31T03:49:07.221Z,3.40
2019-03-31T03:49:32.032Z,2.20
2019-03-31T03:49:56.657Z,3.40
2019-03-31T03:50:21.349Z,4.00
2019-03-31T03:50:45.959Z,3.00
2019-03-31T03:51:10.627Z,2.00
2019-03-31T03:51:35.247Z,3.00
2019-03-31T03:51:59.881Z,2.20
2019-03-31T03:52:24.622Z,2.00
2019-03-31T03:52:49.249Z,2.00
2019-03-31T03:53:13.928Z,2.00
2019-03-31T03:53:38.574Z,2.00
2019-03-31T03:54:03.164Z,2.00
2019-03-31T03:54:27.811Z,3.00
2019-03-31T03:54:52.468Z,2.00
2019-03-31T03:55:17.337Z,3.00
2019-03-31T03:55:41.983Z,2.20
2019-03-31T03:56:06.814Z,2.00
2019-03-31T03:56:31.617Z,2.00
2019-03-31T03:56:56.244Z,2.00
2019-03-31T03:57:20.947Z,2.50
2019-03-31T03:57:45.567Z,3.00
2019-03-31T03:58:10.205Z,2.60
2019-03-31T03:58:34.827Z,2.00
2019-03-31T03:58:59.484Z,2.00
2019-03-31T03:59:24.107Z,2.00
2019-03-31T03:59:48.733Z,1.40
2019-03-31T04:00:13.547Z,2.00
2019-03-31T04:00:38.178Z,2.00
2019-03-31T04:01:04.442Z,3.00
2019-03-31T04:01:29.652Z,2.00
2019-03-31T04:01:54.327Z,3.00
2019-03-31T04:02:18.945Z,2.00
2019-03-31T04:02:43.600Z,2.00
2019-03-31T04:03:08.215Z,2.60
2019-03-31T04:03:32.877Z,1.80
2019-03-31T04:03:57.514Z,3.00
2019-03-31T04:04:22.204Z,1.80
2019-03-31T04:04:47.225Z,3.00
2019-03-31T04:05:12.843Z,3.00
2019-03-31T04:05:37.450Z,2.00
2019-03-31T04:06:02.175Z,3.00
2019-03-31T04:06:26.785Z,3.00
2019-03-31T04:06:51.422Z,4.00
2019-03-31T04:07:16.119Z,3.00
2019-03-31T04:07:40.750Z,3.00
2019-03-31T04:08:05.386Z,4.00
2019-03-31T04:08:29.993Z,2.00
2019-03-31T04:08:54.630Z,2.00
2019-03-31T04:09:19.320Z,3.00
2019-03-31T04:09:43.956Z,3.00
2019-03-31T04:10:28.146Z,3.00
2019-03-31T04:10:56.083Z,3.00
2019-03-31T04:11:22.320Z,2.75
2019-03-31T04:11:47.092Z,3.00
2019-03-31T04:12:11.699Z,3.00
2019-03-31T04:12:36.373Z,2.00
2019-03-31T04:13:01.000Z,2.60
2019-03-31T04:13:25.633Z,3.00
2019-03-31T04:13:50.294Z,2.60
2019-03-31T04:14:14.918Z,3.00
2019-03-31T04:14:39.535Z,4.00
2019-03-31T04:15:04.234Z,3.80
2019-03-31T04:15:28.863Z,2.50
2019-03-31T04:15:53.574Z,4.00
2019-03-31T04:16:18.196Z,3.00
2019-03-31T04:16:42.823Z,2.00
2019-03-31T04:17:07.429Z,3.00
2019-03-31T04:17:32.066Z,3.00
2019-03-31T04:17:56.713Z,2.00
2019-03-31T04:18:21.429Z,2.00
2019-03-31T04:18:46.051Z,2.80
2019-03-31T04:19:10.664Z,3.00
2019-03-31T04:19:35.319Z,2.80
2019-03-31T04:19:59.922Z,3.00
2019-03-31T04:20:24.549Z,4.00
2019-03-31T04:20:49.209Z,2.00
2019-03-31T04:21:13.824Z,4.60
2019-03-31T04:21:38.495Z,3.00
2019-03-31T04:22:03.109Z,3.00
2019-03-31T04:22:27.765Z,2.00
2019-03-31T04:22:52.483Z,3.00
2019-03-31T04:23:18.661Z,2.00
2019-03-31T04:23:43.296Z,2.60
2019-03-31T04:24:07.924Z,2.00
2019-03-31T04:24:34.233Z,3.00
2019-03-31T04:24:58.857Z,3.20
2019-03-31T04:25:23.504Z,2.40
2019-03-31T04:25:48.163Z,2.80
2019-03-31T04:26:12.853Z,2.00
2019-03-31T04:26:37.490Z,3.00
2019-03-31T04:27:02.290Z,2.00
2019-03-31T04:27:26.925Z,1.50
2019-03-31T04:27:51.542Z,3.60
2019-03-31T04:28:16.274Z,2.60
2019-03-31T04:28:40.955Z,2.00
2019-03-31T04:29:05.633Z,2.60
2019-03-31T04:29:30.265Z,2.80
2019-03-31T04:29:54.891Z,2.00
2019-03-31T04:30:19.503Z,2.20
2019-03-31T04:30:44.158Z,2.00
2019-03-31T04:31:08.797Z,2.00
2019-03-31T04:31:33.439Z,2.00
2019-03-31T04:31:58.059Z,2.00
2019-03-31T04:32:22.699Z,2.00
2019-03-31T04:32:47.322Z,1.80
2019-03-31T04:33:12.935Z,2.00
2019-03-31T04:33:50.227Z,2.60
2019-03-31T04:34:03.950Z,3.00
2019-03-31T04:34:28.588Z,2.40
2019-03-31T04:34:53.207Z,3.00
2019-03-31T04:35:17.849Z,3.00
2019-03-31T04:35:42.495Z,1.40
2019-03-31T04:36:07.507Z,2.60
2019-03-31T04:36:32.118Z,3.00
2019-03-31T04:36:56.797Z,3.00
2019-03-31T04:37:21.495Z,3.00
2019-03-31T04:37:47.783Z,3.40
2019-03-31T04:38:12.898Z,2.00
2019-03-31T04:38:37.522Z,3.00
2019-03-31T04:39:02.147Z,2.20
2019-03-31T04:39:26.815Z,4.00
2019-03-31T04:39:51.488Z,3.00
2019-03-31T04:40:16.163Z,3.00
2019-03-31T04:40:40.821Z,3.00
2019-03-31T04:41:05.444Z,3.00
2019-03-31T04:41:30.093Z,3.00
2019-03-31T04:41:54.716Z,3.00
2019-03-31T04:42:19.361Z,4.00
2019-03-31T04:42:44.048Z,3.00
2019-03-31T04:43:08.714Z,3.00
2019-03-31T04:43:33.334Z,4.00
2019-03-31T04:43:57.952Z,3.00
2019-03-31T04:44:22.610Z,4.00
2019-03-31T04:44:47.264Z,3.00
2019-03-31T04:45:12.928Z,3.00
2019-03-31T04:45:37.612Z,3.00
2019-03-31T04:46:02.222Z,3.00
2019-03-31T04:46:26.870Z,3.25
2019-03-31T04:46:51.488Z,4.00
2019-03-31T04:47:16.115Z,2.80
2019-03-31T04:47:40.733Z,2.50
2019-03-31T04:48:05.350Z,3.00
2019-03-31T04:48:29.984Z,3.00
2019-03-31T04:48:54.614Z,2.00
2019-03-31T04:49:19.352Z,3.00
2019-03-31T04:49:43.981Z,3.00
2019-03-31T04:50:08.630Z,3.00
2019-03-31T04:50:33.281Z,2.00
2019-03-31T04:50:57.914Z,3.00
2019-03-31T04:51:22.580Z,5.00
2019-03-31T04:51:47.204Z,3.60
2019-03-31T04:52:12.932Z,3.00
2019-03-31T04:52:37.604Z,3.40
2019-03-31T04:53:02.229Z,3.00
2019-03-31T04:53:26.845Z,4.00
2019-03-31T04:53:51.484Z,3.00
2019-03-31T04:54:16.151Z,3.00
2019-03-31T04:54:40.739Z,4.00
2019-03-31T04:55:08.521Z,4.00
2019-03-31T04:55:33.151Z,4.80
2019-03-31T04:55:57.781Z,3.00
2019-03-31T04:56:22.416Z,5.00
2019-03-31T04:56:47.112Z,4.00
2019-03-31T04:57:11.760Z,4.00
2019-03-31T04:57:36.344Z,4.00
2019-03-31T04:58:01.006Z,5.00
2019-03-31T04:58:25.628Z,4.25
2019-03-31T04:58:50.346Z,5.00
2019-03-31T04:59:14.980Z,4.00
2019-03-31T04:59:39.616Z,4.00
2019-03-31T05:00:05.477Z,5.00
2019-03-31T05:00:30.156Z,3.80
2019-03-31T05:00:54.776Z,5.40
2019-03-31T05:01:19.415Z,4.80
2019-03-31T05:01:44.034Z,3.00
2019-03-31T05:02:08.648Z,3.00
2019-03-31T05:02:33.270Z,3.50
2019-03-31T05:02:57.925Z,3.00
2019-03-31T05:03:22.632Z,2.00
2019-03-31T05:03:47.252Z,3.80
2019-03-31T05:04:11.906Z,3.00
2019-03-31T05:04:36.532Z,3.00
2019-03-31T05:05:01.148Z,4.40
2019-03-31T05:05:25.781Z,4.00
2019-03-31T05:05:50.446Z,4.00
2019-03-31T05:06:15.084Z,3.00
2019-03-31T05:06:39.695Z,3.00
2019-03-31T05:07:04.312Z,3.00
2019-03-31T05:07:28.920Z,5.00
2019-03-31T05:07:53.547Z,4.00
2019-03-31T05:08:18.172Z,5.00
2019-03-31T05:08:42.828Z,4.00
2019-03-31T05:09:07.459Z,4.00
2019-03-31T05:09:32.174Z,3.00
2019-03-31T05:09:56.806Z,3.00
2019-03-31T05:10:21.425Z,3.00
2019-03-31T05:10:46.056Z,2.00
2019-03-31T05:11:10.724Z,3.00
2019-03-31T05:11:35.342Z,3.00
2019-03-31T05:11:59.984Z,3.00
2019-03-31T05:12:24.615Z,4.00
2019-03-31T05:12:49.241Z,4.00
2019-03-31T05:13:13.850Z,3.00
2019-03-31T05:13:38.473Z,4.00
2019-03-31T05:14:03.212Z,3.00
2019-03-31T05:14:27.926Z,3.00
2019-03-31T05:14:52.543Z,4.00
2019-03-31T05:15:17.173Z,3.00
2019-03-31T05:15:41.804Z,4.60
2019-03-31T05:16:06.500Z,4.20
2019-03-31T05:16:31.322Z,3.00
2019-03-31T05:16:55.961Z,3.00
2019-03-31T05:17:20.670Z,4.00
2019-03-31T05:17:45.304Z,3.00
2019-03-31T05:18:09.925Z,3.60
2019-03-31T05:18:34.532Z,3.00
2019-03-31T05:18:59.144Z,3.00
2019-03-31T05:19:24.413Z,3.00
2019-03-31T05:19:49.058Z,3.00
2019-03-31T05:20:13.678Z,4.00
2019-03-31T05:20:38.328Z,3.40
2019-03-31T05:21:02.960Z,3.60
2019-03-31T05:21:27.578Z,2.20
2019-03-31T05:21:52.209Z,4.00
2019-03-31T05:22:16.843Z,3.00
2019-03-31T05:22:41.997Z,3.00
2019-03-31T05:23:06.626Z,2.00
2019-03-31T05:23:31.243Z,3.00
2019-03-31T05:23:55.864Z,3.00
2019-03-31T05:24:20.514Z,4.80
2019-03-31T05:24:45.122Z,4.00
2019-03-31T05:25:09.965Z,3.20
2019-03-31T05:25:34.660Z,3.00
2019-03-31T05:25:59.262Z,4.00
2019-03-31T05:26:23.934Z,3.00
2019-03-31T05:26:48.568Z,4.80
2019-03-31T05:27:13.212Z,3.00
2019-03-31T05:27:37.826Z,4.80
2019-03-31T05:28:02.455Z,3.40
2019-03-31T05:28:27.088Z,3.50
2019-03-31T05:28:51.729Z,4.00
2019-03-31T05:29:16.713Z,3.00
2019-03-31T05:29:41.368Z,3.60
2019-03-31T05:30:06.560Z,3.00
2019-03-31T05:30:31.190Z,4.25